Portada
METAR-TAF:

METAR-TAF

Aeropuertos :

Aeropuerto de Okadama

Sapporo, Japón

latitud: 43-07N, longitud: 141-23E, altitud: 8 m

Observación

El informe se hizo hace 7 horas y 19 minutos, a las 11:00 UTC
Viento 4 kt del sur-sureste
Temperatura -5°C
Humedad 73%
Presión 1028 hPa
Visibilidad 10 km o más
Escasas nubes a una altura de 2000 ft

METAR: RJCO 271100Z 15004KT 9999 FEW020 M05/M09 Q1028

Hora: 03:19 (18:19 UTC)


TAF: falta

Observaciones y pronósticos meteorológicos de más de 4000 aeropuertos (mensajes METAR y TAF).

Los puntos amarillos y rojos representan las estaciones disponibles.

Ponga el ratón en el punto deseado para ver el nombre de la estación.

Haga clic para ver las observaciones y los pronósticos meteorológicos.

Para cambiar el mapa : haga clic en los botones verdes con una cruz de color negro para hacer un zoom, en el botón verde con un guión para alejar o en las flechas verdes para mapas adyacentes.


METAR-TAF: